createdAt,value
2019-05-23T00:01:28.736Z,16.77
2019-05-23T00:03:46.289Z,17.20
2019-05-23T00:05:54.870Z,17.10
2019-05-23T00:08:00.050Z,18.03
2019-05-23T00:10:07.617Z,19.20
2019-05-23T00:12:30.636Z,18.62
2019-05-23T00:14:37.580Z,15.98
2019-05-23T00:16:42.617Z,15.83
2019-05-23T00:18:48.090Z,16.65
2019-05-23T00:20:54.878Z,19.00
2019-05-23T00:22:59.579Z,19.15
2019-05-23T00:25:06.283Z,17.65
2019-05-23T00:27:10.199Z,17.40
2019-05-23T00:29:14.190Z,19.02
2019-05-23T00:31:33.142Z,15.58
2019-05-23T00:33:38.591Z,15.88
2019-05-23T00:35:42.787Z,16.25
2019-05-23T00:37:47.524Z,15.78
2019-05-23T00:39:53.270Z,16.27
2019-05-23T00:41:58.005Z,20.85
2019-05-23T00:44:02.414Z,20.77
2019-05-23T00:46:07.451Z,19.12
2019-05-23T00:48:13.653Z,20.15
2019-05-23T00:50:21.106Z,17.07
2019-05-23T00:52:25.603Z,19.52
2019-05-23T00:54:30.850Z,15.65
2019-05-23T00:56:37.414Z,18.48
2019-05-23T00:58:41.335Z,16.13
2019-05-23T01:00:45.961Z,18.82
2019-05-23T01:02:49.850Z,17.87
2019-05-23T01:04:54.222Z,14.55
2019-05-23T01:06:58.156Z,16.60
2019-05-23T01:09:03.417Z,17.07
2019-05-23T01:11:09.924Z,17.75
2019-05-23T01:13:16.477Z,18.00
2019-05-23T01:15:22.389Z,17.40
2019-05-23T01:17:28.667Z,14.90
2019-05-23T01:19:33.294Z,16.20
2019-05-23T01:21:55.052Z,19.23
2019-05-23T01:24:07.375Z,17.32
2019-05-23T01:26:12.634Z,19.40
2019-05-23T01:28:17.160Z,17.40
2019-05-23T01:30:25.538Z,18.57
2019-05-23T01:32:33.661Z,20.05
2019-05-23T01:34:40.047Z,18.40
2019-05-23T01:36:45.809Z,17.65
2019-05-23T01:38:50.197Z,18.20
2019-05-23T01:40:54.428Z,20.55
2019-05-23T01:42:58.629Z,18.70
2019-05-23T01:45:02.566Z,18.77
2019-05-23T01:47:08.838Z,22.40
2019-05-23T01:49:13.833Z,19.50
2019-05-23T01:51:19.069Z,20.35
2019-05-23T01:53:23.695Z,19.45
2019-05-23T01:55:28.100Z,22.27
2019-05-23T01:57:32.596Z,18.40
2019-05-23T01:59:37.239Z,22.80
2019-05-23T02:01:41.452Z,20.77
2019-05-23T02:03:46.295Z,24.75
2019-05-23T02:05:50.918Z,21.90
2019-05-23T02:07:55.840Z,17.82
2019-05-23T02:10:00.272Z,20.12
2019-05-23T02:12:10.141Z,20.72
2019-05-23T02:14:14.500Z,19.92
2019-05-23T02:16:19.566Z,21.00
2019-05-23T02:18:24.308Z,22.65
2019-05-23T02:20:29.438Z,18.98
2019-05-23T02:22:33.917Z,20.68
2019-05-23T02:24:38.338Z,20.37
2019-05-23T02:26:42.780Z,20.10
2019-05-23T02:28:48.102Z,21.12
2019-05-23T02:30:52.571Z,23.22
2019-05-23T02:32:57.352Z,23.15
2019-05-23T02:35:01.672Z,20.20
2019-05-23T02:37:07.953Z,23.67
2019-05-23T02:39:13.781Z,20.60
2019-05-23T02:41:31.125Z,23.02
2019-05-23T02:43:36.440Z,23.30
2019-05-23T02:45:44.979Z,20.72
2019-05-23T02:47:49.475Z,22.80
2019-05-23T02:49:55.825Z,23.92
2019-05-23T02:52:03.419Z,22.35
2019-05-23T02:54:11.835Z,23.50
2019-05-23T02:56:18.481Z,22.48
2019-05-23T02:58:39.097Z,21.95
2019-05-23T03:01:13.408Z,20.50
2019-05-23T03:03:24.601Z,21.67
2019-05-23T03:05:28.994Z,18.87
2019-05-23T03:07:35.569Z,20.27
2019-05-23T03:09:39.943Z,21.55
2019-05-23T03:11:47.501Z,25.50
2019-05-23T03:13:52.590Z,24.15
2019-05-23T03:15:58.371Z,20.80
2019-05-23T03:18:05.737Z,18.95
2019-05-23T03:20:10.591Z,19.62
2019-05-23T03:22:31.178Z,21.12
2019-05-23T03:24:35.599Z,22.10
2019-05-23T03:26:48.312Z,28.92
2019-05-23T03:28:52.619Z,19.27
2019-05-23T03:31:25.258Z,19.42
2019-05-23T03:33:08.833Z,20.52
2019-05-23T03:35:15.513Z,21.00
2019-05-23T03:37:20.742Z,20.00
2019-05-23T03:39:25.982Z,23.18
2019-05-23T03:41:30.900Z,19.27
2019-05-23T03:43:36.240Z,21.33
2019-05-23T03:45:46.864Z,20.30
2019-05-23T03:47:51.023Z,21.20
2019-05-23T03:49:55.631Z,20.85
2019-05-23T03:52:01.152Z,20.40
2019-05-23T03:54:06.117Z,21.05
2019-05-23T03:56:11.765Z,20.32
2019-05-23T03:58:17.826Z,19.57
2019-05-23T04:00:23.573Z,20.27
2019-05-23T04:02:29.014Z,18.15
2019-05-23T04:04:33.971Z,18.90
2019-05-23T04:06:38.152Z,20.95
2019-05-23T04:08:44.137Z,20.80
2019-05-23T04:10:51.675Z,17.00
2019-05-23T04:12:54.253Z,19.48
2019-05-23T04:14:58.384Z,18.25
2019-05-23T04:17:02.403Z,19.57
2019-05-23T04:19:06.211Z,18.55
2019-05-23T04:21:10.799Z,15.93
2019-05-23T04:23:14.990Z,21.17
2019-05-23T04:25:19.338Z,18.20
2019-05-23T04:27:24.156Z,17.70
2019-05-23T04:29:28.490Z,18.17
2019-05-23T04:31:33.499Z,15.90
2019-05-23T04:33:37.970Z,16.63
2019-05-23T04:35:42.141Z,23.87
2019-05-23T04:37:46.245Z,16.60
2019-05-23T04:39:50.461Z,17.67
2019-05-23T04:41:54.362Z,17.27
2019-05-23T04:43:58.174Z,15.83
2019-05-23T04:46:02.165Z,16.80
2019-05-23T04:48:06.336Z,16.00
2019-05-23T04:50:14.599Z,15.53
2019-05-23T04:52:18.600Z,18.00
2019-05-23T04:54:22.714Z,16.77
2019-05-23T04:56:27.023Z,16.70
2019-05-23T04:58:31.650Z,14.17
2019-05-23T05:00:36.586Z,16.67
2019-05-23T05:02:41.277Z,18.00
2019-05-23T05:04:45.107Z,17.17
2019-05-23T05:06:49.101Z,16.37
2019-05-23T05:08:54.889Z,16.17
2019-05-23T05:11:00.730Z,16.27
2019-05-23T05:13:05.444Z,12.87
2019-05-23T05:15:09.654Z,14.87
2019-05-23T05:17:13.547Z,12.83
2019-05-23T05:19:18.481Z,12.63
2019-05-23T05:21:22.384Z,12.53
2019-05-23T05:23:25.908Z,14.23
2019-05-23T05:25:30.099Z,13.80
2019-05-23T05:27:35.023Z,14.17
2019-05-23T05:29:38.631Z,12.57
2019-05-23T05:31:42.435Z,14.73
2019-05-23T05:33:46.940Z,15.13
2019-05-23T05:35:50.842Z,14.00
2019-05-23T05:37:54.769Z,13.97
2019-05-23T05:39:58.481Z,13.90
2019-05-23T05:42:02.771Z,15.13
2019-05-23T05:44:06.816Z,12.87
2019-05-23T05:46:10.789Z,12.93
2019-05-23T05:48:14.779Z,13.43
2019-05-23T05:50:19.935Z,12.73
2019-05-23T05:52:24.715Z,12.60
2019-05-23T05:54:28.561Z,11.13
2019-05-23T05:56:32.467Z,11.30
2019-05-23T05:58:36.369Z,11.57
2019-05-23T06:00:41.698Z,10.67
2019-05-23T06:03:02.918Z,10.73
2019-05-23T06:04:50.791Z,13.37
2019-05-23T06:06:56.401Z,11.13
2019-05-23T06:09:02.139Z,11.40
2019-05-23T06:11:06.265Z,12.97
2019-05-23T06:13:10.889Z,12.27
2019-05-23T06:15:14.882Z,11.73
2019-05-23T06:17:18.753Z,11.63
2019-05-23T06:19:22.896Z,11.30
2019-05-23T06:21:28.749Z,13.10
2019-05-23T06:23:33.255Z,14.07
2019-05-23T06:25:36.961Z,12.00
2019-05-23T06:27:41.261Z,11.77
2019-05-23T06:29:46.013Z,10.43
2019-05-23T06:31:50.366Z,11.13
2019-05-23T06:33:54.548Z,12.70
2019-05-23T06:35:59.162Z,12.37
2019-05-23T06:38:03.389Z,12.50
2019-05-23T06:40:08.715Z,11.77
2019-05-23T06:42:12.227Z,12.33
2019-05-23T06:44:18.078Z,11.27
2019-05-23T06:46:22.482Z,12.57
2019-05-23T06:48:27.105Z,12.57
2019-05-23T06:50:31.215Z,10.87
2019-05-23T06:52:34.984Z,12.87
2019-05-23T06:54:39.115Z,12.37
2019-05-23T06:56:43.034Z,11.90
2019-05-23T06:58:46.840Z,10.77
2019-05-23T07:00:50.858Z,10.90
2019-05-23T07:02:54.736Z,11.30
2019-05-23T07:04:58.327Z,13.40
2019-05-23T07:07:02.444Z,11.33
2019-05-23T07:09:12.133Z,12.23
2019-05-23T07:11:19.480Z,14.10
2019-05-23T07:13:26.476Z,12.30
2019-05-23T07:15:30.694Z,9.77
2019-05-23T07:17:34.715Z,10.83
2019-05-23T07:19:38.575Z,11.63
2019-05-23T07:21:42.458Z,12.30
2019-05-23T07:23:46.602Z,11.07
2019-05-23T07:25:50.506Z,12.37
2019-05-23T07:27:54.523Z,12.53
2019-05-23T07:29:58.445Z,11.37
2019-05-23T07:32:04.008Z,11.23
2019-05-23T07:34:07.959Z,14.17
2019-05-23T07:36:11.747Z,14.20
2019-05-23T07:38:15.443Z,13.07
2019-05-23T07:40:19.586Z,14.80
2019-05-23T07:42:23.534Z,12.20
2019-05-23T07:44:29.483Z,40.03
2019-05-23T07:46:33.554Z,20.50
2019-05-23T07:48:37.668Z,14.17
2019-05-23T07:50:41.305Z,16.17
2019-05-23T07:52:45.672Z,13.60
2019-05-23T07:54:50.838Z,12.80
2019-05-23T07:56:54.712Z,10.73
2019-05-23T07:58:59.036Z,11.43
2019-05-23T08:01:07.382Z,11.77
2019-05-23T08:03:12.032Z,11.53
2019-05-23T08:05:16.319Z,13.23
2019-05-23T08:07:21.189Z,12.50
2019-05-23T08:09:25.420Z,12.00
2019-05-23T08:11:29.324Z,12.00
2019-05-23T08:13:32.998Z,11.27
2019-05-23T08:15:37.036Z,9.47
2019-05-23T08:17:40.945Z,9.23
2019-05-23T08:19:49.559Z,12.30
2019-05-23T08:21:50.233Z,11.13
2019-05-23T08:23:53.912Z,9.37
2019-05-23T08:25:57.456Z,9.90
2019-05-23T08:28:01.392Z,11.17
2019-05-23T08:30:09.841Z,9.80
2019-05-23T08:32:13.700Z,9.93
2019-05-23T08:34:18.140Z,9.10
2019-05-23T08:36:22.551Z,10.07
2019-05-23T08:38:27.098Z,10.10
2019-05-23T08:40:31.002Z,11.67
2019-05-23T08:42:36.469Z,10.40
2019-05-23T08:44:40.086Z,10.50
2019-05-23T08:46:43.626Z,10.40
2019-05-23T08:48:47.605Z,9.30
2019-05-23T08:50:51.876Z,13.93
2019-05-23T08:52:55.940Z,10.63
2019-05-23T08:55:02.853Z,10.87
2019-05-23T08:57:07.318Z,12.33
2019-05-23T08:59:11.231Z,11.60
2019-05-23T09:01:15.846Z,16.87
2019-05-23T09:03:20.273Z,14.43
2019-05-23T09:05:28.646Z,14.97
2019-05-23T09:07:33.200Z,14.53
2019-05-23T09:09:37.512Z,16.53
2019-05-23T09:11:42.447Z,15.03
2019-05-23T09:13:47.908Z,15.33
2019-05-23T09:15:52.845Z,15.17
2019-05-23T09:17:58.052Z,18.00
2019-05-23T09:20:01.605Z,17.37
2019-05-23T09:22:05.420Z,22.73
2019-05-23T09:24:10.096Z,19.47
2019-05-23T09:26:14.595Z,19.20
2019-05-23T09:28:18.493Z,16.47
2019-05-23T09:30:24.009Z,17.03
2019-05-23T09:32:27.816Z,14.90
2019-05-23T09:34:31.656Z,15.80
2019-05-23T09:36:36.234Z,18.37
2019-05-23T09:38:40.196Z,17.70
2019-05-23T09:40:44.786Z,19.63
2019-05-23T09:42:48.393Z,17.70
2019-05-23T09:44:52.317Z,16.80
2019-05-23T09:46:56.312Z,17.17
2019-05-23T09:49:00.251Z,16.27
2019-05-23T09:51:04.140Z,17.57
2019-05-23T09:53:07.712Z,18.30
2019-05-23T09:55:11.929Z,19.07
2019-05-23T09:57:16.519Z,20.13
2019-05-23T09:59:20.365Z,21.60
2019-05-23T10:01:24.986Z,18.73
2019-05-23T10:03:28.909Z,17.50
2019-05-23T10:05:42.728Z,19.40
2019-05-23T10:07:38.165Z,18.23
2019-05-23T10:09:42.139Z,20.23
2019-05-23T10:11:45.948Z,16.13
2019-05-23T10:13:49.852Z,16.97
2019-05-23T10:15:55.020Z,14.63
2019-05-23T10:18:00.882Z,16.73
2019-05-23T10:20:06.544Z,16.97
2019-05-23T10:22:10.567Z,17.00
2019-05-23T10:24:14.924Z,16.77
2019-05-23T10:26:18.954Z,15.17
2019-05-23T10:28:22.822Z,15.90
2019-05-23T10:30:26.595Z,15.37
2019-05-23T10:32:30.441Z,14.37
2019-05-23T10:34:34.551Z,15.47
2019-05-23T10:36:38.081Z,16.47
2019-05-23T10:38:41.843Z,19.23
2019-05-23T10:40:45.845Z,17.63
2019-05-23T10:42:49.853Z,17.40
2019-05-23T10:44:54.135Z,16.17
2019-05-23T10:46:58.076Z,17.93
2019-05-23T10:49:01.671Z,17.40
2019-05-23T10:51:05.678Z,16.57
2019-05-23T10:53:09.788Z,17.97
2019-05-23T10:55:13.786Z,19.80
2019-05-23T10:57:17.405Z,17.17
2019-05-23T10:59:21.368Z,16.67
2019-05-23T11:01:25.841Z,16.77
2019-05-23T11:03:29.754Z,17.30
2019-05-23T11:05:33.624Z,15.17
2019-05-23T11:07:37.843Z,18.00
2019-05-23T11:09:42.573Z,18.00
2019-05-23T11:11:46.673Z,18.03
2019-05-23T11:13:50.279Z,16.37
2019-05-23T11:15:54.150Z,18.57
2019-05-23T11:17:58.094Z,16.67
2019-05-23T11:20:02.122Z,15.80
2019-05-23T11:22:07.646Z,18.80
2019-05-23T11:24:11.869Z,22.60
2019-05-23T11:26:15.456Z,20.47
2019-05-23T11:28:19.354Z,19.03
2019-05-23T11:30:26.654Z,18.63
2019-05-23T11:32:30.661Z,19.00
2019-05-23T11:34:34.864Z,16.63
2019-05-23T11:36:38.402Z,16.97
2019-05-23T11:38:42.771Z,18.37
2019-05-23T11:40:46.380Z,15.43
2019-05-23T11:42:52.585Z,15.80
2019-05-23T11:44:55.832Z,16.23
2019-05-23T11:46:59.813Z,16.93
2019-05-23T11:49:05.062Z,16.53
2019-05-23T11:51:09.080Z,17.90
2019-05-23T11:53:12.972Z,17.97
2019-05-23T11:55:17.294Z,16.03
2019-05-23T11:57:21.337Z,15.27
2019-05-23T11:59:25.313Z,15.37
2019-05-23T12:01:30.854Z,15.53
2019-05-23T12:03:34.390Z,15.40
2019-05-23T12:05:38.251Z,14.53
2019-05-23T12:07:42.256Z,16.10
2019-05-23T12:09:47.077Z,16.00
2019-05-23T12:11:51.367Z,16.57
2019-05-23T12:13:55.405Z,13.93
2019-05-23T12:15:59.038Z,15.77
2019-05-23T12:18:02.589Z,16.70
2019-05-23T12:20:07.664Z,15.93
2019-05-23T12:22:11.305Z,13.00
2019-05-23T12:24:15.844Z,17.93
2019-05-23T12:26:19.370Z,15.97
2019-05-23T12:28:24.695Z,18.17
2019-05-23T12:30:28.560Z,14.90
2019-05-23T12:32:32.106Z,16.50
2019-05-23T12:34:35.999Z,17.27
2019-05-23T12:36:39.998Z,16.47
2019-05-23T12:38:43.626Z,16.43
2019-05-23T12:40:47.151Z,19.83
2019-05-23T12:42:51.006Z,15.47
2019-05-23T12:44:54.918Z,17.83
2019-05-23T12:47:00.061Z,17.27
2019-05-23T12:49:05.895Z,15.23
2019-05-23T12:51:16.865Z,16.43
2019-05-23T12:53:21.798Z,15.93
2019-05-23T12:55:25.707Z,15.33
2019-05-23T12:57:29.631Z,12.20
2019-05-23T12:59:34.038Z,15.63
2019-05-23T13:01:39.675Z,18.20
2019-05-23T13:03:44.100Z,18.00
2019-05-23T13:05:48.628Z,12.80
2019-05-23T13:07:52.735Z,15.30
2019-05-23T13:09:56.336Z,15.77
2019-05-23T13:11:59.877Z,16.93
2019-05-23T13:14:03.513Z,15.90
2019-05-23T13:16:07.418Z,13.87
2019-05-23T13:18:11.345Z,16.70
2019-05-23T13:20:15.981Z,18.43
2019-05-23T13:22:19.847Z,20.10
2019-05-23T13:24:23.826Z,19.47
2019-05-23T13:26:28.065Z,18.77
2019-05-23T13:28:31.632Z,18.00
2019-05-23T13:30:35.576Z,20.33
2019-05-23T13:32:55.976Z,17.57
2019-05-23T13:35:16.192Z,17.80
2019-05-23T13:37:33.201Z,16.37
2019-05-23T13:39:41.735Z,14.90
2019-05-23T13:41:45.597Z,16.17
2019-05-23T13:43:49.695Z,14.43
2019-05-23T13:45:53.997Z,14.57
2019-05-23T13:47:57.579Z,15.77
2019-05-23T13:50:01.413Z,15.33
2019-05-23T13:52:05.023Z,17.07
2019-05-23T13:54:09.029Z,16.13
2019-05-23T13:56:12.928Z,16.57
2019-05-23T13:58:16.531Z,15.03
2019-05-23T14:00:21.035Z,17.40
2019-05-23T14:02:25.357Z,13.13
2019-05-23T14:04:29.246Z,14.00
2019-05-23T14:06:33.171Z,14.30
2019-05-23T14:08:37.063Z,14.50
2019-05-23T14:10:41.170Z,13.37
2019-05-23T14:12:45.904Z,10.90
2019-05-23T14:14:49.916Z,14.50
2019-05-23T14:17:11.459Z,13.43
2019-05-23T14:19:15.063Z,17.47
2019-05-23T14:21:18.943Z,12.13
2019-05-23T14:23:24.137Z,11.83
2019-05-23T14:25:28.084Z,11.13
2019-05-23T14:27:33.632Z,13.93
2019-05-23T14:29:37.555Z,16.10
2019-05-23T14:31:43.283Z,11.03
2019-05-23T14:33:57.730Z,11.13
2019-05-23T14:36:03.341Z,9.43
2019-05-23T14:38:08.848Z,12.23
2019-05-23T14:40:13.015Z,11.80
2019-05-23T14:42:33.329Z,12.83
2019-05-23T14:44:37.224Z,11.00
2019-05-23T14:46:45.231Z,12.80
2019-05-23T14:48:53.528Z,13.40
2019-05-23T14:51:02.161Z,13.90
2019-05-23T14:53:07.677Z,12.40
2019-05-23T14:55:13.546Z,10.90
2019-05-23T14:57:17.768Z,12.13
2019-05-23T14:59:21.985Z,12.60
2019-05-23T15:01:28.660Z,12.20
2019-05-23T15:03:35.672Z,11.43
2019-05-23T15:05:40.445Z,13.20
2019-05-23T15:07:44.545Z,12.90
2019-05-23T15:09:48.457Z,10.33
2019-05-23T15:11:52.113Z,11.73
2019-05-23T15:13:55.799Z,13.30
2019-05-23T15:15:59.767Z,11.10
2019-05-23T15:18:03.673Z,11.23
2019-05-23T15:20:08.155Z,14.83
2019-05-23T15:22:12.248Z,16.57
2019-05-23T15:24:16.122Z,12.03
2019-05-23T15:26:23.506Z,13.73
2019-05-23T15:28:25.275Z,15.40
2019-05-23T15:30:29.166Z,8.90
2019-05-23T15:32:33.066Z,12.67
2019-05-23T15:34:36.981Z,14.30
2019-05-23T15:36:40.510Z,16.13
2019-05-23T15:38:44.360Z,12.97
2019-05-23T15:40:48.275Z,15.70
2019-05-23T15:42:52.585Z,16.93
2019-05-23T15:44:56.184Z,15.50
2019-05-23T15:47:00.211Z,15.50
2019-05-23T15:49:04.638Z,16.90
2019-05-23T15:51:08.810Z,14.67
2019-05-23T15:53:32.688Z,12.00
2019-05-23T15:55:38.474Z,18.23
2019-05-23T15:57:56.366Z,13.30
2019-05-23T16:00:07.459Z,14.37
2019-05-23T16:02:21.801Z,14.43
2019-05-23T16:04:26.052Z,11.73
2019-05-23T16:06:31.556Z,13.60
2019-05-23T16:08:36.895Z,13.37
2019-05-23T16:10:40.793Z,9.70
2019-05-23T16:12:44.856Z,9.73
2019-05-23T16:14:48.815Z,12.13
2019-05-23T16:16:56.352Z,10.77
2019-05-23T16:18:58.990Z,11.50
2019-05-23T16:21:02.897Z,10.20
2019-05-23T16:23:06.416Z,11.90
2019-05-23T16:25:10.391Z,11.93
2019-05-23T16:27:14.391Z,11.10
2019-05-23T16:29:19.940Z,10.50
2019-05-23T16:31:23.558Z,9.97
2019-05-23T16:33:27.463Z,12.83
2019-05-23T16:35:31.739Z,9.60
2019-05-23T16:37:35.296Z,9.40
2019-05-23T16:39:47.156Z,10.27
2019-05-23T16:41:44.495Z,11.63
2019-05-23T16:43:48.031Z,9.80
2019-05-23T16:45:52.119Z,9.80
2019-05-23T16:47:55.996Z,8.33
2019-05-23T16:49:59.924Z,11.27
2019-05-23T16:52:03.941Z,10.23
2019-05-23T16:54:07.924Z,9.97
2019-05-23T16:56:13.584Z,11.63
2019-05-23T16:58:21.891Z,9.77
2019-05-23T17:00:43.689Z,10.90
2019-05-23T17:02:54.884Z,10.93
2019-05-23T17:05:09.875Z,11.10
2019-05-23T17:07:23.798Z,12.63
2019-05-23T17:09:32.349Z,11.03
2019-05-23T17:11:54.492Z,11.83
2019-05-23T17:14:15.033Z,11.47
2019-05-23T17:16:20.496Z,10.87
2019-05-23T17:18:26.120Z,10.17
2019-05-23T17:20:31.705Z,11.60
2019-05-23T17:22:46.016Z,11.60
2019-05-23T17:24:51.653Z,12.03
2019-05-23T17:27:09.019Z,13.03
2019-05-23T17:29:17.488Z,14.40
2019-05-23T17:31:25.805Z,11.90
2019-05-23T17:33:30.019Z,14.47
2019-05-23T17:35:34.859Z,12.00
2019-05-23T17:37:38.745Z,12.40
2019-05-23T17:39:43.830Z,11.33
2019-05-23T17:41:47.377Z,11.73
2019-05-23T17:43:51.192Z,11.07
2019-05-23T17:45:55.099Z,11.57
2019-05-23T17:47:59.085Z,12.03
2019-05-23T17:50:03.068Z,12.10
2019-05-23T17:52:07.539Z,11.77
2019-05-23T17:54:11.940Z,12.00
2019-05-23T17:56:15.960Z,11.73
2019-05-23T17:58:20.704Z,11.93
2019-05-23T18:00:25.962Z,13.33
2019-05-23T18:02:29.823Z,12.43
2019-05-23T18:04:33.930Z,12.43
2019-05-23T18:06:38.346Z,11.03
2019-05-23T18:08:42.968Z,12.23
2019-05-23T18:10:47.086Z,11.70
2019-05-23T18:12:50.983Z,10.07
2019-05-23T18:14:57.374Z,10.40
2019-05-23T18:17:01.463Z,9.40
2019-05-23T18:19:06.916Z,10.87
2019-05-23T18:21:12.676Z,13.13
2019-05-23T18:23:16.567Z,14.13
2019-05-23T18:25:25.836Z,11.57
2019-05-23T18:27:30.505Z,9.57
2019-05-23T18:29:35.026Z,6.93
2019-05-23T18:31:40.788Z,6.97
2019-05-23T18:33:46.113Z,7.57
2019-05-23T18:35:49.781Z,7.70
2019-05-23T18:37:54.154Z,7.33
2019-05-23T18:39:58.246Z,6.60
2019-05-23T18:42:02.056Z,7.43
2019-05-23T18:44:06.586Z,8.40
2019-05-23T18:46:12.091Z,6.17
2019-05-23T18:48:16.212Z,7.97
2019-05-23T18:50:21.380Z,9.20
2019-05-23T18:52:25.468Z,8.07
2019-05-23T18:54:29.455Z,9.50
2019-05-23T18:56:33.376Z,8.93
2019-05-23T18:58:37.247Z,9.50
2019-05-23T19:01:02.433Z,10.77
2019-05-23T19:03:06.601Z,11.33
2019-05-23T19:05:12.333Z,12.20
2019-05-23T19:07:16.755Z,9.93
2019-05-23T19:09:21.744Z,10.23
2019-05-23T19:11:25.799Z,10.07
2019-05-23T19:13:29.717Z,10.23
2019-05-23T19:15:34.110Z,11.67
2019-05-23T19:17:39.032Z,9.33
2019-05-23T19:19:43.051Z,10.93
2019-05-23T19:21:47.365Z,12.07
2019-05-23T19:23:52.017Z,11.63
2019-05-23T19:25:56.304Z,12.63
2019-05-23T19:28:00.226Z,10.60
2019-05-23T19:30:06.276Z,12.27
2019-05-23T19:32:11.267Z,11.33
2019-05-23T19:34:15.512Z,11.80
2019-05-23T19:36:19.735Z,13.10
2019-05-23T19:38:23.495Z,11.37
2019-05-23T19:40:28.072Z,10.80
2019-05-23T19:42:32.062Z,10.83
2019-05-23T19:44:35.621Z,12.10
2019-05-23T19:46:40.630Z,11.30
2019-05-23T19:48:45.508Z,12.30
2019-05-23T19:50:50.617Z,12.07
2019-05-23T19:52:54.447Z,11.43
2019-05-23T19:54:58.464Z,9.90
2019-05-23T19:57:02.369Z,9.27
2019-05-23T19:59:05.896Z,16.30
2019-05-23T20:01:10.588Z,11.73
2019-05-23T20:03:14.696Z,11.80
2019-05-23T20:05:20.640Z,11.77
2019-05-23T20:07:25.245Z,12.60
2019-05-23T20:09:29.584Z,15.50
2019-05-23T20:11:33.784Z,12.77
2019-05-23T20:13:38.002Z,11.03
2019-05-23T20:15:45.735Z,12.13
2019-05-23T20:17:51.473Z,13.03
2019-05-23T20:19:53.110Z,15.07
2019-05-23T20:21:57.012Z,15.77
2019-05-23T20:24:02.670Z,12.40
2019-05-23T20:26:08.204Z,14.13
2019-05-23T20:28:11.901Z,13.27
2019-05-23T20:30:20.544Z,15.93
2019-05-23T20:32:24.751Z,13.20
2019-05-23T20:34:29.096Z,13.47
2019-05-23T20:36:32.712Z,15.70
2019-05-23T20:38:36.848Z,14.40
2019-05-23T20:40:40.462Z,13.53
2019-05-23T20:42:44.034Z,13.87
2019-05-23T20:44:47.829Z,12.00
2019-05-23T20:46:51.932Z,16.50
2019-05-23T20:48:55.528Z,15.43
2019-05-23T20:50:59.153Z,13.63
2019-05-23T20:53:02.861Z,17.40
2019-05-23T20:55:07.808Z,12.47
2019-05-23T20:57:12.123Z,15.37
2019-05-23T20:59:16.106Z,16.07
2019-05-23T21:01:21.650Z,15.70
2019-05-23T21:03:26.680Z,17.07
2019-05-23T21:05:30.492Z,14.73
2019-05-23T21:07:34.392Z,15.57
2019-05-23T21:09:38.305Z,18.60
2019-05-23T21:11:41.834Z,17.77
2019-05-23T21:13:45.712Z,18.97
2019-05-23T21:15:49.710Z,20.80
2019-05-23T21:17:53.621Z,17.20
2019-05-23T21:19:57.516Z,17.50
2019-05-23T21:22:01.388Z,16.77
2019-05-23T21:24:05.395Z,18.73
2019-05-23T21:26:09.167Z,18.03
2019-05-23T21:28:13.061Z,19.27
2019-05-23T21:30:16.744Z,20.17
2019-05-23T21:32:20.672Z,18.50
2019-05-23T21:34:24.564Z,18.03
2019-05-23T21:36:28.100Z,15.57
2019-05-23T21:38:32.074Z,15.30
2019-05-23T21:40:38.930Z,14.00
2019-05-23T21:42:47.848Z,16.90
2019-05-23T21:44:48.174Z,15.70
2019-05-23T21:46:51.802Z,16.33
2019-05-23T21:48:55.672Z,18.00
2019-05-23T21:50:59.203Z,15.93
2019-05-23T21:53:03.595Z,15.70
2019-05-23T21:55:07.525Z,17.67
2019-05-23T21:57:11.811Z,17.13
2019-05-23T21:59:15.711Z,16.87
2019-05-23T22:01:22.884Z,16.87
2019-05-23T22:03:26.906Z,15.83
2019-05-23T22:05:30.604Z,15.97
2019-05-23T22:07:34.915Z,15.43
2019-05-23T22:09:38.460Z,13.73
2019-05-23T22:11:42.445Z,17.47
2019-05-23T22:13:46.432Z,14.50
2019-05-23T22:15:50.353Z,15.17
2019-05-23T22:17:54.246Z,18.30
2019-05-23T22:19:58.153Z,12.33
2019-05-23T22:22:02.165Z,17.77
2019-05-23T22:24:06.067Z,16.63
2019-05-23T22:26:09.655Z,17.33
2019-05-23T22:28:13.564Z,16.47
2019-05-23T22:30:17.483Z,14.17
2019-05-23T22:32:22.213Z,15.63
2019-05-23T22:34:33.277Z,14.57
2019-05-23T22:36:37.179Z,14.73
2019-05-23T22:38:41.086Z,12.70
2019-05-23T22:40:44.980Z,15.40
2019-05-23T22:42:48.793Z,19.10
2019-05-23T22:44:52.816Z,14.07
2019-05-23T22:46:56.432Z,15.17
2019-05-23T22:49:00.306Z,14.63
2019-05-23T22:51:04.212Z,14.53
2019-05-23T22:53:08.115Z,14.03
2019-05-23T22:55:11.687Z,15.57
2019-05-23T22:57:15.520Z,14.77
2019-05-23T22:59:19.427Z,14.77
2019-05-23T23:01:25.058Z,11.20
2019-05-23T23:03:28.973Z,14.23
2019-05-23T23:05:32.503Z,12.30
2019-05-23T23:07:36.477Z,14.17
2019-05-23T23:09:40.473Z,13.83
2019-05-23T23:11:44.386Z,13.23
2019-05-23T23:13:48.286Z,10.57
2019-05-23T23:15:52.507Z,13.93
2019-05-23T23:17:56.053Z,13.20
2019-05-23T23:19:59.897Z,14.53
2019-05-23T23:22:03.830Z,13.00
2019-05-23T23:24:07.826Z,16.10
2019-05-23T23:26:11.713Z,14.87
2019-05-23T23:28:15.527Z,16.50
2019-05-23T23:30:21.735Z,13.80
2019-05-23T23:32:25.526Z,16.50
2019-05-23T23:34:29.493Z,19.03
2019-05-23T23:36:33.040Z,17.27
2019-05-23T23:38:36.573Z,21.53
2019-05-23T23:40:40.403Z,19.20
2019-05-23T23:42:44.294Z,18.37
2019-05-23T23:44:47.391Z,22.43
2019-05-23T23:47:09.205Z,19.40
2019-05-23T23:49:30.926Z,16.37
2019-05-23T23:51:52.453Z,16.03
2019-05-23T23:54:13.713Z,18.23
2019-05-23T23:56:35.383Z,18.57
2019-05-23T23:58:38.781Z,18.17
